Time;durP1;ratioP1;P1;durP2;ratioP2;P2;SDS_P1;SDS_P2;PMS_P1;PMS_P2;Temp;Humidity;BMP_temperature;BMP_pressure;BME280_temperature;BME280_humidity;BME280_pressure;Samples;Min_cycle;Max_cycle;Signal;HPM_P1;HPM_P2
2024/03/06 00:01:58;;;;;;;11.18;2.67;;;;;;;13.37;100.00;100910.50;10480617;28;20078;-85
2024/03/06 00:07:20;;;;;;;11.30;2.53;;;;;;;13.61;100.00;100896.47;10492685;28;20059;-85
2024/03/06 00:12:43;;;;;;;9.05;2.75;;;;;;;13.69;100.00;100909.78;10479106;28;20052;-85
2024/03/06 00:18:07;;;;;;;8.82;2.78;;;;;;;13.78;100.00;100905.44;10478979;28;21108;-86
2024/03/06 00:23:30;;;;;;;4.70;2.30;;;;;;;13.92;100.00;100905.47;10516511;28;20052;-85
2024/03/06 00:28:53;;;;;;;6.47;2.88;;;;;;;13.98;100.00;100901.97;10479198;28;20084;-86
2024/03/06 00:34:17;;;;;;;10.25;3.42;;;;;;;13.93;100.00;100904.59;10479188;28;20048;-86
2024/03/06 00:39:39;;;;;;;6.53;2.78;;;;;;;14.03;100.00;100905.53;10494003;28;20052;-86
2024/03/06 00:45:02;;;;;;;7.65;3.15;;;;;;;13.81;100.00;100905.44;10495211;28;20135;-86
2024/03/06 00:50:26;;;;;;;7.78;2.30;;;;;;;13.55;100.00;100897.34;10497395;28;20056;-87
2024/03/06 00:55:49;;;;;;;7.20;3.28;;;;;;;13.78;100.00;100900.13;10503939;28;20381;-87
2024/03/06 01:01:11;;;;;;;12.38;2.40;;;;;;;14.20;100.00;100915.31;10472164;28;20102;-86
2024/03/06 01:06:35;;;;;;;4.15;2.15;;;;;;;14.33;100.00;100909.16;10491761;28;20045;-86
2024/03/06 01:11:58;;;;;;;9.07;2.53;;;;;;;14.34;100.00;100897.66;10463812;28;20053;-86
2024/03/06 01:17:20;;;;;;;6.50;2.17;;;;;;;14.52;100.00;100909.22;10487344;28;20519;-86
2024/03/06 01:22:45;;;;;;;5.38;1.70;;;;;;;14.49;100.00;100906.56;10519067;28;20068;-86
2024/03/06 01:28:08;;;;;;;6.93;2.35;;;;;;;14.80;100.00;100910.16;10477249;28;20048;-85
2024/03/06 01:33:30;;;;;;;9.30;2.40;;;;;;;14.85;100.00;100909.25;10484005;28;20140;-85
2024/03/06 01:38:54;;;;;;;10.55;2.63;;;;;;;15.07;100.00;100924.34;10477144;28;20049;-85
2024/03/06 01:44:17;;;;;;;7.90;2.88;;;;;;;15.23;100.00;100911.06;10484410;28;20045;-86
2024/03/06 01:49:41;;;;;;;7.80;3.10;;;;;;;15.06;100.00;100917.25;10466599;28;20131;-85
2024/03/06 01:55:06;;;;;;;6.70;2.40;;;;;;;14.92;100.00;100911.03;10475955;28;20049;-87
2024/03/06 02:00:30;;;;;;;6.43;2.25;;;;;;;15.00;100.00;100922.56;10476942;28;20052;-86
2024/03/06 02:05:54;;;;;;;8.18;2.53;;;;;;;15.09;100.00;100929.66;10490012;28;20053;-85
2024/03/06 02:11:18;;;;;;;10.27;2.70;;;;;;;14.54;100.00;100923.41;10470140;28;20140;-86
2024/03/06 02:16:41;;;;;;;11.68;2.72;;;;;;;13.88;100.00;100927.56;10512111;28;20048;-86
2024/03/06 02:22:05;;;;;;;10.02;2.47;;;;;;;13.64;100.00;100928.34;10484449;28;20197;-85
2024/03/06 02:27:27;;;;;;;7.93;2.80;;;;;;;13.69;100.00;100941.63;10524509;28;20040;-86
2024/03/06 02:32:50;;;;;;;8.90;3.05;;;;;;;13.80;100.00;100937.25;10484717;28;20040;-86
2024/03/06 02:38:14;;;;;;;10.95;3.45;;;;;;;13.63;100.00;100939.81;10484556;28;20048;-86
2024/03/06 02:43:36;;;;;;;9.05;2.42;;;;;;;13.64;100.00;100936.31;10497481;28;20121;-86
2024/03/06 02:48:59;;;;;;;11.82;3.30;;;;;;;13.51;100.00;100930.03;10481521;28;20397;-86
2024/03/06 02:54:24;;;;;;;11.77;5.60;;;;;;;13.42;100.00;100935.28;10483382;28;20098;-86
2024/03/06 02:59:47;;;;;;;7.97;2.58;;;;;;;13.35;100.00;100937.88;10496212;28;20094;-86
2024/03/06 03:05:10;;;;;;;11.38;3.88;;;;;;;13.46;100.00;100941.47;10459993;28;20056;-86
2024/03/06 03:10:34;;;;;;;8.20;3.42;;;;;;;13.36;100.00;100937.88;10511115;28;20401;-86
2024/03/06 03:15:57;;;;;;;8.82;2.25;;;;;;;13.43;100.00;100938.81;10495604;28;20072;-86
2024/03/06 03:21:19;;;;;;;7.25;2.63;;;;;;;13.53;100.00;100948.59;10458870;28;20063;-86
2024/03/06 03:26:44;;;;;;;10.07;2.83;;;;;;;13.52;100.00;100946.84;10510191;28;20127;-86
2024/03/06 03:32:06;;;;;;;6.55;2.63;;;;;;;13.43;100.00;100954.72;10496269;28;20057;-86
2024/03/06 03:37:29;;;;;;;12.40;5.65;;;;;;;13.35;100.00;100956.41;10481386;28;20056;-86
2024/03/06 03:42:53;;;;;;;15.35;3.22;;;;;;;13.34;100.00;100966.13;10516534;28;20386;-87
2024/03/06 03:48:16;;;;;;;7.10;3.10;;;;;;;13.27;100.00;100972.28;10488175;28;20541;-86
2024/03/06 03:53:39;;;;;;;8.70;2.65;;;;;;;13.33;100.00;100985.56;10505233;28;20048;-86
2024/03/06 03:59:03;;;;;;;9.80;2.63;;;;;;;13.56;100.00;100984.00;10494363;28;20048;-87
2024/03/06 04:04:25;;;;;;;7.35;2.10;;;;;;;13.82;100.00;100985.91;10479911;28;20051;-87
2024/03/06 04:09:49;;;;;;;6.50;2.10;;;;;;;14.10;100.00;100981.66;10507541;28;20088;-86
2024/03/06 04:15:13;;;;;;;8.80;2.22;;;;;;;14.25;100.00;100982.59;10478144;28;20049;-86
2024/03/06 04:20:35;;;;;;;9.88;3.42;;;;;;;14.25;100.00;100985.25;10493416;28;20067;-87
2024/03/06 04:25:58;;;;;;;6.07;1.58;;;;;;;14.41;100.00;100983.59;10504856;28;20055;-86
2024/03/06 04:31:22;;;;;;;5.65;2.25;;;;;;;14.51;100.00;100995.09;10466098;28;20056;-87
2024/03/06 04:36:44;;;;;;;7.03;2.10;;;;;;;14.56;100.00;101004.00;10495444;28;20044;-87
2024/03/06 04:42:07;;;;;;;7.07;2.30;;;;;;;14.56;100.00;101019.94;10493179;28;20125;-87
2024/03/06 04:47:31;;;;;;;10.90;3.30;;;;;;;14.65;100.00;101015.53;10494460;28;20508;-86
2024/03/06 04:52:54;;;;;;;8.18;3.00;;;;;;;14.64;100.00;101019.06;10506929;28;20047;-87
2024/03/06 04:58:17;;;;;;;6.90;3.10;;;;;;;14.40;100.00;101037.56;10462849;28;20067;-87
2024/03/06 05:03:41;;;;;;;8.30;2.50;;;;;;;14.25;100.00;101041.00;10474506;28;20060;-87
2024/03/06 05:09:04;;;;;;;7.85;2.67;;;;;;;14.26;100.00;101044.56;10519568;28;20165;-87
2024/03/06 05:14:26;;;;;;;8.73;2.60;;;;;;;14.28;100.00;101046.34;10477075;28;20048;-87
2024/03/06 05:19:51;;;;;;;12.95;2.47;;;;;;;14.39;100.00;101050.84;10475583;28;20558;-87
2024/03/06 05:25:14;;;;;;;10.90;3.67;;;;;;;14.48;100.00;101059.75;10503667;28;20071;-86
2024/03/06 05:30:37;;;;;;;7.72;1.92;;;;;;;14.57;100.00;101077.53;10477132;28;20135;-87
2024/03/06 05:36:01;;;;;;;12.70;3.97;;;;;;;14.58;100.00;101085.47;10463043;28;20655;-84
2024/03/06 05:41:24;;;;;;;9.75;3.50;;;;;;;14.38;100.00;101089.78;10476365;28;20058;-86
2024/03/06 05:46:46;;;;;;;8.52;1.98;;;;;;;14.31;100.00;101103.88;10480661;28;20144;-87
2024/03/06 05:52:10;;;;;;;9.85;2.15;;;;;;;14.23;100.00;101103.88;10489603;28;20049;-87
2024/03/06 05:57:33;;;;;;;5.15;2.00;;;;;;;14.32;100.00;101114.53;10486699;28;20041;-86
2024/03/06 06:02:56;;;;;;;5.85;2.00;;;;;;;14.27;100.00;101115.38;10503155;28;20116;-85
2024/03/06 06:08:20;;;;;;;6.72;2.28;;;;;;;14.26;100.00;101138.41;10504179;28;20492;-87
2024/03/06 06:13:42;;;;;;;10.27;5.40;;;;;;;14.29;100.00;101158.78;10475165;28;20059;-85
2024/03/06 06:19:05;;;;;;;6.57;2.60;;;;;;;14.04;100.00;101155.06;10501204;28;20068;-83
2024/03/06 06:24:30;;;;;;;4.75;2.45;;;;;;;13.95;100.00;101147.91;10489164;28;20520;-84
2024/03/06 06:29:55;;;;;;;6.38;2.00;;;;;;;14.26;100.00;101141.03;10498362;28;20113;-85
2024/03/06 06:35:17;;;;;;;6.18;1.50;;;;;;;14.59;100.00;101148.38;10475041;28;20072;-85
2024/03/06 06:40:42;;;;;;;6.35;2.08;;;;;;;14.98;100.00;101158.28;10500493;28;20048;-86
2024/03/06 06:46:06;;;;;;;6.38;3.40;;;;;;;15.12;100.00;101161.88;10504365;28;20112;-87
2024/03/06 06:51:28;;;;;;;8.35;2.92;;;;;;;15.09;100.00;101164.56;10509745;28;20098;-85
2024/03/06 06:56:53;;;;;;;26.45;16.90;;;;;;;14.96;100.00;101172.47;10495754;28;20049;-84
2024/03/06 07:02:17;;;;;;;12.93;8.13;;;;;;;15.09;100.00;101177.84;10480944;28;20178;-85
2024/03/06 07:07:40;;;;;;;13.88;10.60;;;;;;;15.50;100.00;101175.28;10499847;28;20072;-86
2024/03/06 07:13:05;;;;;;;11.93;8.98;;;;;;;16.40;100.00;101182.47;10482633;28;20071;-84
2024/03/06 07:18:28;;;;;;;8.07;5.22;;;;;;;17.01;100.00;101184.09;10511144;28;20048;-84
2024/03/06 07:23:50;;;;;;;6.60;5.35;;;;;;;17.53;100.00;101178.47;10479496;28;20044;-84
2024/03/06 07:29:15;;;;;;;8.13;6.13;;;;;;;18.72;100.00;101175.72;10481299;28;20067;-85
2024/03/06 07:34:38;;;;;;;12.57;11.18;;;;;;;18.43;100.00;101185.84;10481628;28;20044;-85
2024/03/06 07:40:01;;;;;;;6.97;5.63;;;;;;;18.25;100.00;101187.75;10474533;28;20128;-85
2024/03/06 07:45:25;;;;;;;4.88;2.70;;;;;;;23.39;100.00;101194.78;10490819;28;20080;-83
2024/03/06 07:50:47;;;;;;;4.05;1.65;;;;;;;24.37;100.00;101197.97;10492327;28;20048;-83
2024/03/06 07:56:12;;;;;;;4.50;1.77;;;;;;;22.21;100.00;101190.00;10479844;28;20048;-83
2024/03/06 08:01:37;;;;;;;4.65;2.10;;;;;;;21.46;100.00;101193.59;10491712;28;20721;-83
2024/03/06 08:06:59;;;;;;;7.40;3.40;;;;;;;20.82;100.00;101202.94;10488333;28;20139;-83
2024/03/06 08:12:22;;;;;;;8.73;4.28;;;;;;;20.19;100.00;101204.97;10493239;28;20052;-85
2024/03/06 08:17:46;;;;;;;14.73;10.07;;;;;;;19.81;100.00;101221.66;10476984;28;20036;-83
2024/03/06 08:23:09;;;;;;;13.48;8.45;;;;;;;19.94;100.00;101227.72;10492535;28;20040;-83
2024/03/06 08:28:32;;;;;;;7.53;3.70;;;;;;;20.12;100.00;101227.41;10492844;28;20048;-86
2024/03/06 08:33:56;;;;;;;6.28;2.92;;;;;;;20.76;100.00;101219.16;10476500;28;20102;-86
2024/03/06 08:39:18;;;;;;;5.00;2.85;;;;;;;21.39;100.00;101233.13;10491376;28;20105;-82
2024/03/06 08:44:41;;;;;;;5.45;2.80;;;;;;;21.65;100.00;101234.38;10476868;28;20044;-81
2024/03/06 08:50:07;;;;;;;4.50;2.72;;;;;;;23.04;94.06;101224.56;10468866;28;20384;-83
2024/03/06 08:55:30;;;;;;;3.67;1.85;;;;;;;24.40;71.97;101229.38;10495332;28;20482;-83
2024/03/06 09:00:53;;;;;;;9.60;2.00;;;;;;;25.77;64.38;101225.22;10499719;28;20052;-83
2024/03/06 09:06:17;;;;;;;7.82;2.20;;;;;;;23.42;71.00;101226.16;10468583;28;20044;-84
2024/03/06 09:11:40;;;;;;;4.90;1.90;;;;;;;21.68;85.44;101234.28;10492000;28;20052;-84
2024/03/06 09:17:02;;;;;;;4.35;1.90;;;;;;;20.90;87.62;101235.88;10495175;28;20049;-86
2024/03/06 09:22:26;;;;;;;7.90;2.95;;;;;;;22.71;74.37;101228.19;10482329;28;20049;-85
2024/03/06 09:27:49;;;;;;;3.92;1.67;;;;;;;21.94;77.64;101225.59;10466842;28;20049;-85
2024/03/06 09:33:12;;;;;;;2.83;1.50;;;;;;;21.30;84.21;101214.53;10506288;28;20094;-86
2024/03/06 09:38:37;;;;;;;2.72;1.30;;;;;;;20.57;88.80;101225.78;10475689;28;20045;-85
2024/03/06 09:44:01;;;;;;;3.17;1.40;;;;;;;22.18;75.04;101204.44;10491434;28;20049;-85
2024/03/06 09:49:26;;;;;;;3.47;1.30;;;;;;;21.91;76.25;101214.94;10490910;28;20098;-84
2024/03/06 09:54:51;;;;;;;2.75;1.40;;;;;;;22.23;75.70;101207.88;10496375;28;20508;-85
2024/03/06 10:00:14;;;;;;;2.60;1.30;;;;;;;23.01;65.86;101197.75;10436517;28;20087;-85
2024/03/06 10:05:37;;;;;;;2.30;1.25;;;;;;;23.32;61.57;101208.50;10463771;28;20037;-85
2024/03/06 10:11:01;;;;;;;1.67;1.10;;;;;;;25.59;49.95;101196.22;10508379;28;20602;-86
2024/03/06 10:16:24;;;;;;;5.20;1.45;;;;;;;25.59;48.62;101207.91;10475529;28;20044;-84
2024/03/06 10:21:50;;;;;;;5.07;1.27;;;;;;;23.19;57.87;101210.66;10504600;28;20048;-86
2024/03/06 10:27:18;;;;;;;5.53;1.30;;;;;;;21.93;70.75;101203.22;10477147;28;20509;-86
2024/03/06 10:32:41;;;;;;;1.80;1.10;;;;;;;21.66;74.62;101218.19;10484081;28;20052;-86
2024/03/06 10:38:05;;;;;;;4.28;1.30;;;;;;;21.65;73.67;101210.19;10477065;28;20129;-86
2024/03/06 10:43:29;;;;;;;4.57;1.88;;;;;;;21.76;73.54;101213.50;10498418;28;20049;-85
2024/03/06 10:48:53;;;;;;;3.28;1.25;;;;;;;22.54;66.82;101223.22;10497039;28;20040;-86
2024/03/06 10:54:17;;;;;;;3.90;1.60;;;;;;;22.65;65.59;101218.44;10489168;28;20445;-85
2024/03/06 10:59:42;;;;;;;8.05;5.00;;;;;;;22.21;69.31;101220.47;10512242;28;20052;-85
2024/03/06 11:05:05;;;;;;;7.53;1.30;;;;;;;21.52;74.02;101206.00;10460786;28;20140;-84
2024/03/06 11:10:33;;;;;;;4.40;1.27;;;;;;;21.47;73.01;101220.41;10480806;28;20401;-85
2024/03/06 11:15:59;;;;;;;4.00;1.17;;;;;;;21.86;70.42;101213.22;10476488;28;20041;-85
2024/03/06 11:21:32;;;;;;;5.63;1.95;;;;;;;22.29;69.68;101222.09;10496251;28;20159;-85
2024/03/06 11:26:59;;;;;;;6.40;1.40;;;;;;;22.36;68.50;101226.41;10482422;28;20048;-85
2024/03/06 11:32:24;;;;;;;6.20;1.75;;;;;;;22.26;68.96;101207.78;10496411;28;20044;-85
2024/03/06 11:37:48;;;;;;;1.35;1.00;;;;;;;22.17;74.02;101218.81;10491613;28;20052;-84
2024/03/06 11:43:24;;;;;;;3.53;1.13;;;;;;;23.27;59.36;101218.53;10468284;28;20045;-84
2024/03/06 11:48:55;;;;;;;2.20;0.90;;;;;;;24.19;54.02;101215.66;10468796;28;20056;-85
2024/03/06 11:54:23;;;;;;;2.03;1.10;;;;;;;24.14;52.97;101209.50;10504865;28;20083;-85
2024/03/06 11:59:46;;;;;;;1.85;1.00;;;;;;;23.54;53.54;101190.78;10507839;28;20048;-88
2024/03/06 12:05:13;;;;;;;1.45;1.33;;;;;;;22.71;59.31;101191.34;10481783;28;20055;-87
2024/03/06 12:10:38;;;;;;;4.10;1.55;;;;;;;22.39;64.18;101186.84;10508221;28;20656;-88
2024/03/06 12:16:07;;;;;;;3.60;1.63;;;;;;;22.14;63.64;101191.09;10468573;28;20041;-87
2024/03/06 12:21:32;;;;;;;6.40;1.85;;;;;;;21.98;64.66;101193.28;10480664;28;20405;-84
2024/03/06 12:27:01;;;;;;;3.17;1.20;;;;;;;21.76;65.46;101195.56;10480876;28;20080;-88
2024/03/06 12:32:29;;;;;;;1.92;1.25;;;;;;;21.69;66.59;101196.63;10496862;28;20304;-87
2024/03/06 12:37:53;;;;;;;3.92;1.75;;;;;;;21.66;65.78;101195.81;10501440;28;20179;-87
2024/03/06 12:43:17;;;;;;;4.75;1.30;;;;;;;21.60;67.15;101188.75;10505117;28;20202;-87
2024/03/06 12:48:40;;;;;;;1.63;1.10;;;;;;;21.43;66.97;101180.22;10501146;28;20041;-87
2024/03/06 12:54:05;;;;;;;3.78;1.50;;;;;;;21.28;68.96;101173.38;10495164;28;20075;-88
2024/03/06 12:59:55;;;;;;;5.65;1.48;;;;;;;21.01;71.35;101176.59;10479045;28;20044;-84
2024/03/06 13:05:19;;;;;;;2.97;1.50;;;;;;;20.88;76.18;101172.41;10432657;28;21202;-83
2024/03/06 13:10:44;;;;;;;4.45;1.75;;;;;;;20.76;79.40;101164.59;10467020;28;20043;-86
2024/03/06 13:16:10;;;;;;;4.68;1.60;;;;;;;20.72;83.88;101173.63;10466096;28;20056;-82
2024/03/06 13:21:33;;;;;;;6.47;1.90;;;;;;;20.49;89.00;101174.06;10444917;28;20052;-84
2024/03/06 13:26:57;;;;;;;6.35;1.67;;;;;;;20.17;91.30;101163.88;10476877;28;20076;-84
2024/03/06 13:32:20;;;;;;;5.10;1.70;;;;;;;20.11;93.30;101178.28;10471169;28;20045;-83
2024/03/06 13:37:43;;;;;;;4.50;1.60;;;;;;;20.00;95.92;101171.31;10511986;28;20044;-87
2024/03/06 13:43:08;;;;;;;4.43;2.13;;;;;;;19.89;97.93;101182.19;10454135;28;20745;-89
2024/03/06 13:48:31;;;;;;;6.95;1.52;;;;;;;19.82;99.33;101191.28;10472862;28;20072;-84
2024/03/06 13:53:54;;;;;;;4.47;1.70;;;;;;;19.75;98.83;101194.97;10458930;28;20471;-83
2024/03/06 13:59:19;;;;;;;8.48;1.95;;;;;;;19.72;97.65;101182.47;10473648;28;20049;-83
2024/03/06 14:04:41;;;;;;;3.35;1.92;;;;;;;19.49;98.80;101187.31;10516387;28;20143;-83
2024/03/06 14:10:04;;;;;;;5.35;2.13;;;;;;;19.53;96.79;101189.03;10480776;28;20081;-85
2024/03/06 14:15:28;;;;;;;3.10;1.77;;;;;;;19.33;96.09;101197.28;10477237;28;20059;-85
2024/03/06 14:20:51;;;;;;;3.90;1.55;;;;;;;19.41;97.60;101214.16;10510624;28;20505;-87
2024/03/06 14:26:14;;;;;;;5.05;1.67;;;;;;;19.72;94.68;101211.94;10479472;28;20333;-88
2024/03/06 14:31:38;;;;;;;4.78;1.70;;;;;;;19.84;91.79;101219.81;10462831;28;20060;-89
2024/03/06 14:37:00;;;;;;;7.00;2.03;;;;;;;20.07;88.97;101215.88;10484429;28;20452;-87
2024/03/06 14:42:23;;;;;;;2.80;1.55;;;;;;;19.89;89.89;101211.69;10487306;28;20063;-84
2024/03/06 14:47:47;;;;;;;2.63;1.60;;;;;;;19.65;92.41;101222.78;10471027;28;20484;-86
2024/03/06 14:53:10;;;;;;;6.35;1.95;;;;;;;19.39;94.71;101226.66;10493938;28;20049;-87
2024/03/06 14:58:32;;;;;;;2.97;2.28;;;;;;;19.21;96.35;101226.00;10468165;28;20041;-87
2024/03/06 15:03:58;;;;;;;4.20;1.60;;;;;;;18.83;99.07;101231.81;10486322;28;20094;-88
2024/03/06 15:09:21;;;;;;;2.10;1.73;;;;;;;18.56;100.00;101233.88;10482430;28;20052;-88
2024/03/06 15:14:44;;;;;;;6.10;2.47;;;;;;;18.27;100.00;101228.75;10467784;28;20059;-87
2024/03/06 15:20:11;;;;;;;5.82;2.97;;;;;;;17.92;100.00;101236.13;10490712;28;20049;-88
2024/03/06 15:25:34;;;;;;;3.50;2.45;;;;;;;17.77;100.00;101241.59;10468292;28;20139;-83
2024/03/06 15:30:56;;;;;;;5.10;1.80;;;;;;;17.61;100.00;101255.91;10503504;27;20480;-83
2024/03/06 15:36:20;;;;;;;4.60;4.03;;;;;;;17.29;100.00;101251.59;10469590;28;20457;-85
2024/03/06 15:41:43;;;;;;;5.25;2.63;;;;;;;17.10;100.00;101255.22;10507499;28;20041;-83
2024/03/06 15:47:06;;;;;;;9.82;3.55;;;;;;;16.95;100.00;101260.59;10480199;28;20566;-83
2024/03/06 15:52:30;;;;;;;6.20;3.70;;;;;;;16.65;100.00;101269.53;10479611;28;20067;-82
2024/03/06 15:57:52;;;;;;;8.35;4.55;;;;;;;16.48;100.00;101271.28;10506717;28;20041;-87
2024/03/06 16:03:15;;;;;;;8.27;3.35;;;;;;;16.37;100.00;101273.94;10494199;28;20056;-87
2024/03/06 16:08:39;;;;;;;3.85;2.35;;;;;;;16.38;100.00;101278.41;10483209;28;20040;-87
2024/03/06 16:14:02;;;;;;;4.85;2.67;;;;;;;16.17;100.00;101275.72;10471971;28;20048;-87
2024/03/06 16:19:25;;;;;;;5.38;2.55;;;;;;;15.95;100.00;101291.66;10476289;28;20428;-90
2024/03/06 16:24:51;;;;;;;4.43;2.40;;;;;;;15.71;100.00;101286.28;10449928;28;20543;-89
2024/03/06 16:30:14;;;;;;;8.68;5.10;;;;;;;15.66;100.00;101289.81;10457804;28;20052;-85
2024/03/06 16:35:37;;;;;;;8.38;5.82;;;;;;;15.48;100.00;101287.94;10487059;28;20049;-86
2024/03/06 16:41:04;;;;;;;6.97;4.20;;;;;;;15.46;100.00;101292.38;10488060;28;20572;-85
2024/03/06 16:46:27;;;;;;;9.75;4.22;;;;;;;15.54;100.00;101299.53;10501384;28;20404;-82
2024/03/06 16:51:50;;;;;;;9.13;4.75;;;;;;;15.62;100.00;101285.38;10491081;28;20052;-82
2024/03/06 16:57:14;;;;;;;33.50;21.00;;;;;;;15.95;100.00;101304.06;10463861;28;20049;-81
2024/03/06 17:02:37;;;;;;;18.75;11.82;;;;;;;16.00;100.00;101288.13;10464015;28;20082;-80
2024/03/06 17:08:02;;;;;;;48.17;29.02;;;;;;;16.11;100.00;101302.34;10486650;28;20041;-82
2024/03/06 17:13:27;;;;;;;21.88;14.15;;;;;;;16.28;100.00;101300.59;10476226;28;20044;-83
2024/03/06 17:18:49;;;;;;;15.63;12.88;;;;;;;16.53;100.00;101307.72;10472699;28;20553;-84
2024/03/06 17:24:14;;;;;;;14.50;11.48;;;;;;;16.47;100.00;101309.50;10474490;28;20048;-82
2024/03/06 17:29:37;;;;;;;15.43;13.85;;;;;;;16.21;100.00;101306.81;10504082;28;20519;-82
2024/03/06 17:35:00;;;;;;;14.93;11.77;;;;;;;15.93;100.00;101320.09;10469980;28;20044;-86
2024/03/06 17:40:23;;;;;;;31.60;27.98;;;;;;;15.75;100.00;101327.13;10486379;28;20094;-86
2024/03/06 17:45:47;;;;;;;16.17;13.88;;;;;;;15.65;100.00;101326.19;10477606;28;20052;-84
2024/03/06 17:51:10;;;;;;;17.17;15.43;;;;;;;15.69;100.00;101330.63;10474447;28;20044;-81
2024/03/06 17:56:32;;;;;;;12.90;11.07;;;;;;;15.66;100.00;101335.97;10475591;28;20041;-82
2024/03/06 18:01:57;;;;;;;10.90;8.27;;;;;;;15.88;100.00;101337.78;10479604;28;20060;-81
2024/03/06 18:07:19;;;;;;;14.77;8.05;;;;;;;16.10;100.00;101338.75;10499916;28;20056;-80
2024/03/06 18:12:42;;;;;;;9.63;7.43;;;;;;;16.12;100.00;101342.31;10478172;28;20055;-81
2024/03/06 18:18:06;;;;;;;9.35;7.72;;;;;;;16.01;100.00;101337.84;10506742;28;20052;-83
2024/03/06 18:23:29;;;;;;;14.23;10.10;;;;;;;15.80;100.00;101338.66;10503341;28;20067;-81
2024/03/06 18:28:51;;;;;;;19.38;15.10;;;;;;;15.64;100.00;101340.38;10476062;28;20047;-81
2024/03/06 18:34:16;;;;;;;18.88;13.50;;;;;;;15.40;100.00;101350.88;10491636;28;20404;-84
2024/03/06 18:39:39;;;;;;;29.80;18.50;;;;;;;15.11;100.00;101343.59;10473844;28;20396;-81
2024/03/06 18:45:02;;;;;;;28.20;20.02;;;;;;;14.82;100.00;101347.84;10474336;28;20044;-80
2024/03/06 18:50:26;;;;;;;23.13;20.77;;;;;;;14.72;100.00;101354.84;10493391;28;20075;-79
2024/03/06 18:55:49;;;;;;;27.48;22.83;;;;;;;14.64;100.00;101351.22;10484975;28;20044;-87
2024/03/06 19:01:12;;;;;;;14.82;13.38;;;;;;;14.44;100.00;101354.59;10484166;28;20131;-84
2024/03/06 19:06:36;;;;;;;12.52;8.70;;;;;;;14.22;100.00;101359.66;10485785;28;20044;-84
2024/03/06 19:11:58;;;;;;;6.45;5.43;;;;;;;14.01;100.00;101362.09;10511706;28;20050;-80
2024/03/06 19:17:21;;;;;;;6.22;3.70;;;;;;;13.91;100.00;101374.34;10501381;28;20496;-78
2024/03/06 19:22:45;;;;;;;6.68;3.30;;;;;;;13.86;100.00;101377.81;10482049;28;20060;-79
2024/03/06 19:28:07;;;;;;;4.90;3.78;;;;;;;13.71;100.00;101372.34;10469057;28;20044;-79
2024/03/06 19:33:30;;;;;;;5.68;3.85;;;;;;;13.49;100.00;101372.06;10484222;28;20110;-79
2024/03/06 19:38:55;;;;;;;7.45;5.38;;;;;;;13.37;100.00;101371.91;10508445;28;20037;-79
2024/03/06 19:44:17;;;;;;;5.07;3.45;;;;;;;13.26;100.00;101375.28;10482591;28;20549;-80
2024/03/06 19:49:40;;;;;;;5.28;3.35;;;;;;;13.21;100.00;101387.56;10480398;28;20059;-85
2024/03/06 19:55:04;;;;;;;11.20;10.00;;;;;;;13.30;100.00;101385.06;10491380;28;20049;-84
2024/03/06 20:00:27;;;;;;;8.77;7.35;;;;;;;13.28;100.00;101382.38;10472850;28;20048;-84
2024/03/06 20:05:49;;;;;;;12.50;11.20;;;;;;;13.12;100.00;101390.94;10480418;28;20052;-84
2024/03/06 20:11:13;;;;;;;8.40;7.55;;;;;;;13.07;100.00;101385.56;10493828;28;20075;-84
2024/03/06 20:16:36;;;;;;;5.88;3.60;;;;;;;12.62;100.00;101395.41;10471240;28;20079;-83
2024/03/06 20:21:59;;;;;;;6.80;4.70;;;;;;;12.84;100.00;101388.72;10486897;28;20041;-83
2024/03/06 20:27:25;;;;;;;15.98;11.93;;;;;;;12.85;100.00;101388.75;10500542;28;20045;-85
2024/03/06 20:32:47;;;;;;;7.88;6.07;;;;;;;12.95;100.00;101390.66;10492991;28;20052;-82
2024/03/06 20:38:12;;;;;;;8.48;7.55;;;;;;;13.01;100.00;101385.47;10495725;28;20064;-82
2024/03/06 20:43:38;;;;;;;19.95;17.50;;;;;;;13.01;100.00;101405.78;10473814;28;20356;-83
2024/03/06 20:49:01;;;;;;;12.65;9.93;;;;;;;13.06;100.00;101396.16;10493138;28;20459;-83
2024/03/06 20:54:24;;;;;;;6.95;5.20;;;;;;;13.02;100.00;101404.91;10465151;28;20071;-84
2024/03/06 20:59:49;;;;;;;4.63;3.35;;;;;;;12.99;100.00;101408.41;10479257;28;20060;-83
2024/03/06 21:05:13;;;;;;;6.15;5.55;;;;;;;12.91;100.00;101403.84;10521059;28;20044;-83
2024/03/06 21:10:35;;;;;;;4.68;3.85;;;;;;;12.84;100.00;101397.56;10520187;28;20121;-83
2024/03/06 21:15:59;;;;;;;6.05;4.82;;;;;;;12.72;100.00;101408.84;10520117;28;20090;-82
2024/03/06 21:21:22;;;;;;;20.35;17.67;;;;;;;12.62;100.00;101409.53;10491563;28;20090;-83
2024/03/06 21:26:48;;;;;;;6.13;5.40;;;;;;;12.56;100.00;101400.59;10485862;28;20075;-84
2024/03/06 21:32:13;;;;;;;7.40;5.28;;;;;;;12.56;100.00;101401.50;10513903;28;20049;-85
2024/03/06 21:37:35;;;;;;;4.47;3.60;;;;;;;12.53;100.00;101406.75;10478268;28;20609;-83
2024/03/06 21:42:58;;;;;;;7.93;4.70;;;;;;;12.53;100.00;101392.59;10489516;28;20045;-83
2024/03/06 21:48:22;;;;;;;7.00;5.10;;;;;;;12.50;100.00;101392.53;10477852;28;20060;-83
2024/03/06 21:53:45;;;;;;;9.63;5.53;;;;;;;12.18;100.00;101386.66;10504673;28;20044;-83
2024/03/06 21:59:07;;;;;;;10.63;6.70;;;;;;;12.17;100.00;101388.41;10491640;28;20510;-83
2024/03/06 22:04:31;;;;;;;6.70;4.60;;;;;;;12.27;100.00;101381.53;10491057;28;20053;-83
2024/03/06 22:09:54;;;;;;;12.93;7.43;;;;;;;12.36;100.00;101384.34;10490848;28;20074;-83
2024/03/06 22:15:16;;;;;;;12.50;10.27;;;;;;;12.28;100.00;101375.38;10504244;28;20063;-84
2024/03/06 22:20:40;;;;;;;8.10;6.97;;;;;;;12.12;100.00;101378.59;10490978;28;20044;-82
2024/03/06 22:26:03;;;;;;;4.18;3.78;;;;;;;12.03;100.00;101389.00;10506229;28;20105;-81
2024/03/06 22:31:26;;;;;;;5.07;3.25;;;;;;;12.06;100.00;101389.97;10504342;28;20056;-83
2024/03/06 22:36:51;;;;;;;6.72;3.25;;;;;;;11.93;100.00;101394.13;10498599;28;20052;-83
2024/03/06 22:42:14;;;;;;;5.80;3.00;;;;;;;11.77;100.00;101393.75;10485293;28;20051;-84
2024/03/06 22:47:36;;;;;;;3.50;2.90;;;;;;;11.83;100.00;101391.25;10484825;28;20079;-83
2024/03/06 22:53:01;;;;;;;5.43;2.80;;;;;;;11.80;100.00;101399.13;10498318;28;20075;-83
2024/03/06 22:58:24;;;;;;;5.50;2.92;;;;;;;11.72;100.00;101398.94;10483765;28;20036;-84
2024/03/06 23:03:46;;;;;;;10.75;6.22;;;;;;;11.38;100.00;101404.34;10496826;28;20490;-83
2024/03/06 23:09:11;;;;;;;7.78;4.95;;;;;;;11.05;100.00;101397.41;10464977;28;20074;-83
2024/03/06 23:14:36;;;;;;;7.65;6.30;;;;;;;11.09;100.00;101401.91;10483136;28;20055;-83
2024/03/06 23:19:59;;;;;;;4.97;3.90;;;;;;;11.19;100.00;101405.66;10496149;28;20646;-83
2024/03/06 23:25:23;;;;;;;4.93;3.30;;;;;;;11.15;100.00;101407.38;10496370;28;20105;-83
2024/03/06 23:30:45;;;;;;;6.28;3.17;;;;;;;11.06;100.00;101400.94;10478757;28;20047;-84
2024/03/06 23:36:08;;;;;;;5.10;3.13;;;;;;;10.97;100.00;101396.34;10503682;28;20051;-82
2024/03/06 23:41:33;;;;;;;4.70;4.10;;;;;;;11.09;100.00;101401.03;10524363;28;20048;-84
2024/03/06 23:46:56;;;;;;;7.00;2.85;;;;;;;11.22;100.00;101399.56;10480715;28;20045;-84
2024/03/06 23:52:19;;;;;;;5.72;3.00;;;;;;;11.10;100.00;101386.94;10494906;28;20454;-83
2024/03/06 23:57:43;;;;;;;4.72;2.67;;;;;;;11.15;100.00;101386.22;10516938;28;20128;-83
